Time;durP1;ratioP1;P1;durP2;ratioP2;P2;SDS_P1;SDS_P2;PMS_P1;PMS_P2;Temp;Humidity;BMP_temperature;BMP_pressure;BME280_temperature;BME280_humidity;BME280_pressure;Samples;Min_cycle;Max_cycle;Signal;HPM_P1;HPM_P2
2023/10/07 00:00:24;;;;;;;;;47.40;38.60;;;;;21.34;100.00;101961.25;2103269;27;47868;-56
2023/10/07 00:01:24;;;;;;;;;46.60;38.80;;;;;21.33;100.00;101964.88;2105166;27;46362;-56
2023/10/07 00:02:30;;;;;;;;;46.75;37.75;;;;;21.33;100.00;101967.56;2114607;27;46367;-54
2023/10/07 00:03:31;;;;;;;;;47.60;40.40;;;;;21.34;100.00;101953.16;2101579;27;45649;-55
2023/10/07 00:04:31;;;;;;;;;49.50;41.50;;;;;21.35;100.00;101964.84;2103942;27;45455;-54
2023/10/07 00:05:35;;;;;;;;;43.50;35.00;;;;;21.36;100.00;101962.06;2111448;27;46483;-55
2023/10/07 00:06:38;;;;;;;;;35.80;33.00;;;;;21.38;100.00;101967.38;2113897;27;46305;-55
2023/10/07 00:07:38;;;;;;;;;30.00;27.20;;;;;21.40;100.00;101969.06;2111995;27;46448;-56
2023/10/07 00:08:39;;;;;;;;;30.50;27.50;;;;;21.40;100.00;101969.06;2096373;28;46358;-54
2023/10/07 00:09:43;;;;;;;;;25.75;22.50;;;;;21.41;100.00;101970.81;2102938;27;46650;-56
2023/10/07 00:10:46;;;;;;;;;17.80;17.00;;;;;21.41;100.00;101964.53;2112754;27;46618;-56
2023/10/07 00:11:47;;;;;;;;;23.60;23.60;;;;;21.40;100.00;101969.06;2108497;27;47131;-57
2023/10/07 00:12:48;;;;;;;;;17.20;15.80;;;;;21.40;100.00;101971.75;2112561;27;46269;-55
2023/10/07 00:13:51;;;;;;;;;27.00;25.00;;;;;21.38;100.00;101976.34;2108240;27;46644;-56
2023/10/07 00:14:51;;;;;;;;;23.60;23.20;;;;;21.36;100.00;101975.56;2112324;27;46300;-57
2023/10/07 00:15:53;;;;;;;;;28.25;27.00;;;;;21.36;100.00;101971.97;2111605;27;46175;-57
2023/10/07 00:16:54;;;;;;;;;25.40;25.40;;;;;21.33;100.00;101970.28;2113812;27;46840;-57
2023/10/07 00:18:14;;;;;;;;;21.60;20.80;;;;;21.34;100.00;101965.75;2111358;27;46179;-57
2023/10/07 00:19:16;;;;;;;;;24.00;19.40;;;;;21.32;100.00;101968.53;2112724;27;46747;-52
2023/10/07 00:20:20;;;;;;;;;21.00;19.60;;;;;21.34;100.00;101969.34;2111243;27;46306;-54
2023/10/07 00:21:53;;;;;;;;;22.20;21.20;;;;;21.32;100.00;101960.41;2111303;27;46284;-56
2023/10/07 00:22:54;;;;;;;;;14.60;14.40;;;;;21.30;100.00;101980.34;2084512;28;47121;-56
2023/10/07 00:23:54;;;;;;;;;19.40;18.40;;;;;21.29;100.00;101982.16;2077124;28;46729;-55
2023/10/07 00:24:54;;;;;;;;;17.75;17.25;;;;;21.28;100.00;101975.03;2079775;28;46309;-55
2023/10/07 00:25:57;;;;;;;;;16.25;15.75;;;;;21.29;100.00;101973.19;2077340;28;46714;-54
2023/10/07 00:26:59;;;;;;;;;12.60;12.60;;;;;21.27;100.00;101973.28;2079396;28;46957;-55
2023/10/07 00:28:00;;;;;;;;;17.40;16.40;;;;;21.26;100.00;101966.13;2084923;28;46748;-51
2023/10/07 00:29:04;;;;;;;;;13.50;13.50;;;;;21.26;100.00;101966.13;2086695;28;45867;-54
2023/10/07 00:30:13;;;;;;;;;17.80;16.40;;;;;21.27;100.00;101969.69;2084567;28;46506;-56
2023/10/07 00:31:13;;;;;;;;;17.00;17.00;;;;;21.26;100.00;101970.66;2087527;28;46522;-57
2023/10/07 00:32:15;;;;;;;;;16.50;16.50;;;;;21.24;100.00;101961.72;2086584;28;47369;-56
2023/10/07 00:33:21;;;;;;;;;14.40;14.40;;;;;21.24;100.00;101967.13;2086331;28;45339;-54
2023/10/07 00:34:31;;;;;;;;;12.60;12.40;;;;;21.22;100.00;101963.63;2087098;28;46541;-56
2023/10/07 00:35:33;;;;;;;;;15.40;14.80;;;;;21.20;100.00;101962.78;2085329;28;46815;-56
2023/10/07 00:37:34;;;;;;;;;15.50;14.00;;;;;21.19;100.00;101961.91;2084953;28;46418;-57
2023/10/07 00:38:37;;;;;;;;;12.00;12.00;;;;;21.20;100.00;101957.38;2086909;28;45886;-58
2023/10/07 00:39:38;;;;;;;;;15.20;13.40;;;;;21.18;100.00;101960.16;2080234;28;46565;-55
2023/10/07 00:40:45;;;;;;;;;14.75;13.25;;;;;21.17;100.00;101955.72;2076601;28;46252;-56
2023/10/07 00:41:47;;;;;;;;;14.80;14.80;;;;;21.15;100.00;101957.59;2074581;28;46268;-56
2023/10/07 00:42:50;;;;;;;;;14.80;13.60;;;;;21.15;100.00;101955.78;2079560;28;46069;-55
2023/10/07 00:43:58;;;;;;;;;14.80;13.00;;;;;21.16;100.00;101962.94;2085477;28;46422;-57
2023/10/07 00:44:58;;;;;;;;;14.00;12.00;;;;;21.18;100.00;101960.16;2089556;28;46255;-55
2023/10/07 00:46:20;;;;;;;;;12.25;12.25;;;;;21.12;100.00;101964.03;2085147;28;46687;-56
2023/10/07 00:47:21;;;;;;;;;16.20;15.00;;;;;21.16;100.00;101962.06;2079199;28;46925;-53
2023/10/07 00:48:38;;;;;;;;;15.75;14.75;;;;;21.19;100.00;101956.50;2080446;28;46328;-58
2023/10/07 00:49:41;;;;;;;;;15.80;15.80;;;;;21.18;100.00;101954.75;2080624;28;45708;-56
2023/10/07 00:50:42;;;;;;;;;12.60;11.40;;;;;21.13;100.00;101954.97;2087383;28;46346;-56
2023/10/07 00:51:46;;;;;;;;;13.00;13.00;;;;;21.11;100.00;101962.28;2085529;28;46740;-55
2023/10/07 00:54:00;;;;;;;;;10.00;10.00;;;;;21.07;100.00;101955.25;2091295;28;46330;-57
2023/10/07 00:56:04;;;;;;;;;13.40;13.00;;;;;21.02;100.00;101956.41;2110848;27;46175;-55
2023/10/07 00:57:23;;;;;;;;;12.00;12.00;;;;;21.01;100.00;101952.84;2113926;27;45404;-55
2023/10/07 00:58:27;;;;;;;;;9.20;9.20;;;;;21.01;100.00;101960.06;2113385;27;46068;-55
2023/10/07 00:59:29;;;;;;;;;12.80;11.60;;;;;20.99;100.00;101957.44;2111303;27;48049;-57
2023/10/07 01:00:34;;;;;;;;;12.00;12.00;;;;;20.99;100.00;101957.44;2114028;27;45681;-55
2023/10/07 01:01:36;;;;;;;;;12.80;11.80;;;;;20.98;100.00;101949.41;2109916;27;46714;-57
2023/10/07 01:02:37;;;;;;;;;11.60;11.00;;;;;20.95;100.00;101950.41;2114575;27;46527;-56
2023/10/07 01:03:56;;;;;;;;;16.50;16.00;;;;;20.95;100.00;101952.22;2101256;27;45421;-57
2023/10/07 01:05:06;;;;;;;;;12.20;12.20;;;;;20.94;100.00;101948.66;2098418;28;46579;-57
2023/10/07 01:06:10;;;;;;;;;12.80;12.80;;;;;20.93;100.00;101940.63;2105500;27;46830;-56
2023/10/07 01:07:18;;;;;;;;;16.00;12.80;;;;;20.92;100.00;101949.69;2105073;27;46543;-57
2023/10/07 01:08:27;;;;;;;;;12.20;12.00;;;;;20.90;100.00;101947.06;2112833;27;46476;-56
2023/10/07 01:09:28;;;;;;;;;14.40;11.80;;;;;20.89;100.00;101945.31;2110333;27;46763;-56
2023/10/07 01:10:31;;;;;;;;;12.60;10.40;;;;;20.89;100.00;101944.44;2106848;27;46748;-55
2023/10/07 01:11:31;;;;;;;;;16.00;15.20;;;;;20.88;100.00;101945.38;2110730;27;46692;-55
2023/10/07 01:12:38;;;;;;;;;14.00;13.00;;;;;20.86;100.00;101943.63;2113285;27;46375;-54
2023/10/07 01:13:45;;;;;;;;;15.40;14.00;;;;;20.88;100.00;101942.69;2109142;27;46544;-55
2023/10/07 01:14:48;;;;;;;;;14.20;14.20;;;;;20.87;100.00;101944.50;2104628;28;46502;-58
2023/10/07 01:15:48;;;;;;;;;16.40;16.40;;;;;20.85;100.00;101941.88;2108870;27;46457;-54
2023/10/07 01:16:49;;;;;;;;;15.75;14.00;;;;;20.85;100.00;101933.78;2111608;27;46425;-57
2023/10/07 01:17:57;;;;;;;;;18.00;14.00;;;;;20.86;100.00;101930.13;2110250;27;46603;-55
2023/10/07 01:19:05;;;;;;;;;12.20;11.00;;;;;20.85;100.00;101930.22;2113823;27;46444;-57
2023/10/07 01:20:08;;;;;;;;;14.80;12.40;;;;;20.84;100.00;101932.03;2110441;27;46428;-53
2023/10/07 01:21:11;;;;;;;;;10.60;10.00;;;;;20.83;100.00;101927.59;2113515;27;47231;-53
2023/10/07 01:22:18;;;;;;;;;12.60;12.60;;;;;20.85;100.00;101927.50;2111475;27;46049;-57
2023/10/07 01:23:24;;;;;;;;;13.60;13.60;;;;;20.82;100.00;101925.81;2111812;27;46384;-56
2023/10/07 01:25:43;;;;;;;;;12.40;11.60;;;;;20.81;100.00;101928.56;2109249;27;47403;-54
2023/10/07 01:26:44;;;;;;;;;14.60;13.00;;;;;20.80;100.00;101926.81;2113104;27;45154;-55
2023/10/07 01:27:53;;;;;;;;;14.80;13.40;;;;;20.81;100.00;101915.97;2110267;27;45545;-55
2023/10/07 01:29:02;;;;;;;;;11.60;11.20;;;;;20.81;100.00;101915.97;2112926;27;46480;-57
2023/10/07 01:31:23;;;;;;;;;12.00;12.00;;;;;20.82;100.00;101912.31;2076957;28;46837;-52
2023/10/07 01:32:27;;;;;;;;;11.00;11.00;;;;;20.82;100.00;101922.22;2070434;28;46167;-56
2023/10/07 01:33:35;;;;;;;;;11.60;11.40;;;;;20.81;100.00;101910.56;2073932;28;46979;-56
2023/10/07 01:34:35;;;;;;;;;13.00;11.80;;;;;20.83;100.00;101908.69;2071669;28;46747;-55
2023/10/07 01:35:39;;;;;;;;;12.00;11.00;;;;;20.82;100.00;101912.31;2075186;28;46282;-53
2023/10/07 01:36:41;;;;;;;;;12.00;12.00;;;;;20.80;100.00;101907.94;2075375;28;46106;-56
2023/10/07 01:37:59;;;;;;;;;12.20;10.60;;;;;20.79;100.00;101907.06;2071329;28;46311;-56
2023/10/07 01:39:01;;;;;;;;;15.00;12.00;;;;;20.78;100.00;101893.66;2072432;28;46952;-54
2023/10/07 01:40:03;;;;;;;;;15.60;12.80;;;;;20.78;100.00;101899.03;2076801;28;46515;-56
2023/10/07 01:41:07;;;;;;;;;15.20;14.40;;;;;20.76;100.00;101890.16;2070800;28;46477;-55
2023/10/07 01:42:12;;;;;;;;;11.60;10.40;;;;;20.75;100.00;101899.19;2068993;28;46230;-55
2023/10/07 01:43:12;;;;;;;;;6.80;6.60;;;;;20.75;100.00;101894.66;2078456;28;45755;-55
2023/10/07 01:44:15;;;;;;;;;13.00;12.75;;;;;20.75;100.00;101897.38;2073193;28;46169;-53
2023/10/07 01:45:22;;;;;;;;;13.00;13.00;;;;;20.75;100.00;101897.38;2086486;28;46674;-50
2023/10/07 01:46:30;;;;;;;;;9.00;9.00;;;;;20.76;100.00;101898.25;2078291;28;46437;-57
2023/10/07 01:47:31;;;;;;;;;12.80;12.80;;;;;20.75;100.00;101893.78;2076736;28;45911;-55
2023/10/07 01:48:35;;;;;;;;;15.25;14.00;;;;;20.75;100.00;101888.41;2077238;28;46313;-56
2023/10/07 01:49:35;;;;;;;;;10.00;10.00;;;;;20.74;100.00;101892.91;2075291;28;46455;-55
2023/10/07 01:50:40;;;;;;;;;10.25;9.75;;;;;20.75;100.00;101893.78;2073443;28;46653;-54
2023/10/07 01:51:44;;;;;;;;;9.20;9.20;;;;;20.73;100.00;101884.91;2075255;28;46252;-55
2023/10/07 01:52:48;;;;;;;;;12.00;10.40;;;;;20.74;100.00;101884.81;2076994;28;45906;-55
2023/10/07 01:53:49;;;;;;;;;10.80;10.00;;;;;20.74;100.00;101883.94;2071767;28;46619;-56
2023/10/07 01:54:52;;;;;;;;;11.80;9.80;;;;;20.72;100.00;101885.84;2078272;28;46431;-53
2023/10/07 01:55:52;;;;;;;;;12.40;11.00;;;;;20.75;100.00;101883.00;2076169;28;45999;-53
2023/10/07 01:56:53;;;;;;;;;11.00;11.00;;;;;20.76;100.00;101895.53;2070450;28;46372;-56
2023/10/07 01:57:54;;;;;;;;;12.25;11.50;;;;;20.76;100.00;101893.72;2068431;28;46680;-55
2023/10/07 01:58:59;;;;;;;;;16.00;11.80;;;;;20.75;100.00;101889.28;2078485;28;47059;-56
2023/10/07 02:00:05;;;;;;;;;14.00;12.80;;;;;20.75;100.00;101896.50;2073638;28;46710;-56
2023/10/07 02:01:05;;;;;;;;;9.80;9.80;;;;;20.78;100.00;101890.94;2079406;28;46252;-57
2023/10/07 02:02:06;;;;;;;;;13.25;12.00;;;;;20.77;100.00;101895.47;2078965;28;46228;-56
2023/10/07 02:03:08;;;;;;;;;12.25;10.75;;;;;20.79;100.00;101904.38;2071888;28;46981;-55
2023/10/07 02:04:24;;;;;;;;;12.80;12.80;;;;;20.80;100.00;101906.13;2070201;28;46398;-54
2023/10/07 02:05:25;;;;;;;;;12.20;11.60;;;;;20.80;100.00;101905.25;2078012;28;46578;-56
2023/10/07 02:06:26;;;;;;;;;12.80;12.40;;;;;20.80;100.00;101916.03;2078845;28;46414;-56
2023/10/07 02:07:27;;;;;;;;;16.50;13.50;;;;;20.80;100.00;101918.72;2069848;28;46977;-55
2023/10/07 02:08:29;;;;;;;;;12.80;12.40;;;;;20.80;100.00;101910.63;2080003;28;46718;-56
2023/10/07 02:09:35;;;;;;;;;11.20;11.00;;;;;20.80;100.00;101910.63;2103900;27;46903;-56
2023/10/07 02:10:40;;;;;;;;;10.60;10.60;;;;;20.83;100.00;101915.88;2109233;27;46851;-56
2023/10/07 02:11:41;;;;;;;;;11.40;9.60;;;;;20.81;100.00;101921.34;2111970;27;45637;-55
2023/10/07 02:12:45;;;;;;;;;11.00;10.00;;;;;20.81;100.00;101924.06;2113905;27;46624;-57
2023/10/07 02:13:45;;;;;;;;;12.40;9.80;;;;;20.80;100.00;101926.81;2111866;27;46294;-56
2023/10/07 02:14:45;;;;;;;;;12.75;11.00;;;;;20.80;100.00;101919.59;2114891;27;46111;-56
2023/10/07 02:15:47;;;;;;;;;12.50;12.50;;;;;20.80;100.00;101918.72;2109048;27;47037;-55
2023/10/07 02:16:49;;;;;;;;;8.80;8.80;;;;;20.78;100.00;101924.19;2108310;27;46368;-54
2023/10/07 02:17:56;;;;;;;;;12.60;12.60;;;;;20.77;100.00;101927.84;2112161;27;46915;-56
2023/10/07 02:18:57;;;;;;;;;13.00;13.00;;;;;20.77;100.00;101933.25;2120015;27;46299;-57
2023/10/07 02:20:21;;;;;;;;;13.20;13.00;;;;;20.77;100.00;101940.47;2112208;27;45897;-57
2023/10/07 02:21:22;;;;;;;;;14.80;14.60;;;;;20.77;100.00;101938.63;2110709;27;46913;-56
2023/10/07 02:22:28;;;;;;;;;15.00;12.80;;;;;20.76;100.00;101936.88;2114344;27;47194;-53
2023/10/07 02:23:37;;;;;;;;;12.40;12.20;;;;;20.76;100.00;101934.19;2109555;27;48311;-56
2023/10/07 02:24:43;;;;;;;;;11.00;11.00;;;;;20.74;100.00;101930.69;2114622;27;46330;-57
2023/10/07 02:25:49;;;;;;;;;15.00;13.20;;;;;20.75;100.00;101937.84;2108419;27;47953;-57
2023/10/07 02:26:54;;;;;;;;;12.60;11.80;;;;;20.75;100.00;101926.16;2114168;27;47055;-54
2023/10/07 02:27:54;;;;;;;;;12.80;12.60;;;;;20.75;100.00;101935.13;2112417;27;45725;-56
2023/10/07 02:29:06;;;;;;;;;12.75;12.75;;;;;20.75;100.00;101928.88;2114627;27;46536;-56
2023/10/07 02:30:16;;;;;;;;;17.00;14.00;;;;;20.74;100.00;101927.13;2110676;27;46801;-57
2023/10/07 02:31:19;;;;;;;;;10.80;10.20;;;;;20.75;100.00;101934.25;2112918;27;45747;-52
2023/10/07 02:32:19;;;;;;;;;13.40;12.60;;;;;20.75;100.00;101928.88;2114119;27;46550;-54
2023/10/07 02:33:21;;;;;;;;;13.25;13.00;;;;;20.75;100.00;101932.44;2112263;27;46273;-57
2023/10/07 02:34:28;;;;;;;;;13.60;13.60;;;;;20.77;100.00;101935.06;2113943;27;46733;-54
2023/10/07 02:35:31;;;;;;;;;12.40;12.00;;;;;20.77;100.00;101937.75;2105397;27;46991;-55
2023/10/07 02:36:31;;;;;;;;;12.60;11.60;;;;;20.77;100.00;101935.06;2114723;27;45774;-56
2023/10/07 02:37:38;;;;;;;;;16.25;13.50;;;;;20.77;100.00;101935.06;2110953;27;46644;-54
2023/10/07 02:38:42;;;;;;;;;14.40;12.20;;;;;20.77;100.00;101929.66;2114603;27;46695;-55
2023/10/07 02:39:48;;;;;;;;;15.20;14.20;;;;;20.78;100.00;101931.41;2111014;27;46812;-56
2023/10/07 02:40:52;;;;;;;;;16.20;15.00;;;;;20.77;100.00;101930.53;2114357;27;46736;-55
2023/10/07 02:41:53;;;;;;;;;15.60;14.80;;;;;20.75;100.00;101929.75;2112180;27;46855;-56
2023/10/07 02:42:54;;;;;;;;;13.80;12.40;;;;;20.75;100.00;101934.25;2113951;27;47014;-54
2023/10/07 02:43:54;;;;;;;;;15.00;14.80;;;;;20.75;100.00;101936.97;2111848;27;46018;-54
2023/10/07 02:45:20;;;;;;;;;13.75;13.75;;;;;20.73;100.00;101926.25;2114379;27;46606;-53
2023/10/07 02:46:38;;;;;;;;;11.40;11.20;;;;;20.74;100.00;101929.81;2114164;27;46820;-54
2023/10/07 02:47:39;;;;;;;;;13.40;12.80;;;;;20.73;100.00;101930.75;2107465;27;46910;-56
2023/10/07 02:48:39;;;;;;;;;15.60;14.00;;;;;20.71;100.00;101936.22;2111613;27;46447;-56
2023/10/07 02:49:40;;;;;;;;;14.25;14.25;;;;;20.71;100.00;101927.22;2105959;27;46094;-54
2023/10/07 02:50:42;;;;;;;;;17.75;15.25;;;;;20.71;100.00;101933.53;2111805;27;46073;-54
2023/10/07 02:51:47;;;;;;;;;16.00;15.60;;;;;20.70;100.00;101928.19;2099450;27;46677;-55
2023/10/07 02:52:47;;;;;;;;;18.40;17.60;;;;;20.69;100.00;101924.59;2105099;27;46817;-55
2023/10/07 02:53:58;;;;;;;;;16.75;15.75;;;;;20.68;100.00;101925.56;2111196;27;46249;-55
2023/10/07 02:56:22;;;;;;;;;15.40;14.20;;;;;20.64;100.00;101915.84;2087396;28;46820;-55
2023/10/07 02:57:24;;;;;;;;;16.60;16.00;;;;;20.63;100.00;101924.88;2086629;28;46992;-55
2023/10/07 02:58:32;;;;;;;;;20.00;17.60;;;;;20.63;100.00;101915.94;2087744;28;46785;-55
2023/10/07 02:59:35;;;;;;;;;17.00;17.00;;;;;20.62;100.00;101920.44;2086099;28;46340;-54
2023/10/07 03:00:36;;;;;;;;;15.80;15.80;;;;;20.62;100.00;101917.75;2088575;28;45580;-56
2023/10/07 03:01:37;;;;;;;;;18.25;16.75;;;;;20.61;100.00;101918.69;2086826;28;46313;-58
2023/10/07 03:02:48;;;;;;;;;15.00;14.20;;;;;20.61;100.00;101920.50;2088795;28;46939;-56
2023/10/07 03:03:48;;;;;;;;;17.80;16.00;;;;;20.60;100.00;101926.84;2082473;28;46508;-55
2023/10/07 03:04:58;;;;;;;;;16.25;16.25;;;;;20.59;100.00;101912.50;2087702;28;46411;-55
2023/10/07 03:05:59;;;;;;;;;18.40;17.00;;;;;20.57;100.00;101917.06;2086165;28;46823;-55
2023/10/07 03:07:00;;;;;;;;;18.50;15.75;;;;;20.56;100.00;101916.19;2087756;28;46311;-57
2023/10/07 03:08:04;;;;;;;;;18.60;18.60;;;;;20.57;100.00;101919.75;2086123;28;46449;-56
2023/10/07 03:09:10;;;;;;;;;10.40;10.20;;;;;20.57;100.00;101914.34;2088262;28;46527;-55
2023/10/07 03:10:29;;;;;;;;;18.40;18.40;;;;;20.56;100.00;101918.88;2086295;28;46825;-56
2023/10/07 03:11:48;;;;;;;;;18.00;16.20;;;;;20.56;100.00;101918.88;2085499;28;46663;-55
2023/10/07 03:12:56;;;;;;;;;18.00;16.00;;;;;20.54;100.00;101920.78;2087580;28;46737;-53
2023/10/07 03:13:57;;;;;;;;;20.20;18.60;;;;;20.55;100.00;101924.34;2084037;28;45572;-57
2023/10/07 03:15:00;;;;;;;;;16.00;15.00;;;;;20.55;100.00;101927.03;2087691;28;46490;-56
2023/10/07 03:16:26;;;;;;;;;11.60;10.40;;;;;20.55;100.00;101927.03;2085808;28;46395;-57
2023/10/07 03:17:33;;;;;;;;;17.60;16.80;;;;;20.54;100.00;101928.84;2081683;28;46923;-53
2023/10/07 03:18:34;;;;;;;;;16.80;16.40;;;;;20.55;100.00;101927.03;2084737;28;45075;-56
2023/10/07 03:19:52;;;;;;;;;14.00;14.00;;;;;20.55;100.00;101927.91;2085631;28;45291;-55
2023/10/07 03:21:11;;;;;;;;;17.40;14.40;;;;;20.53;100.00;101923.53;2087093;28;46579;-54
2023/10/07 03:22:15;;;;;;;;;16.40;16.20;;;;;20.53;100.00;101923.53;2083890;28;45840;-57
2023/10/07 03:23:17;;;;;;;;;13.20;11.60;;;;;20.53;100.00;101928.94;2081718;28;46956;-58
2023/10/07 03:24:28;;;;;;;;;15.80;15.40;;;;;20.53;100.00;101931.63;2086238;28;46420;-55
2023/10/07 03:25:34;;;;;;;;;15.80;15.60;;;;;20.53;100.00;101931.63;2084226;28;46806;-54
2023/10/07 03:26:34;;;;;;;;;13.80;13.80;;;;;20.52;100.00;101936.16;2079561;28;46511;-55
2023/10/07 03:27:39;;;;;;;;;15.50;14.75;;;;;20.52;100.00;101941.53;2077195;28;46744;-55
2023/10/07 03:28:51;;;;;;;;;13.20;12.80;;;;;20.52;100.00;101929.88;2079323;28;46248;-54
2023/10/07 03:30:13;;;;;;;;;15.80;15.60;;;;;20.49;100.00;101928.19;2086327;28;46365;-55
2023/10/07 03:31:18;;;;;;;;;17.00;15.60;;;;;20.51;100.00;101934.41;2092908;28;46372;-54
2023/10/07 03:32:20;;;;;;;;;13.80;13.80;;;;;20.54;100.00;101930.69;2086643;28;46343;-55
2023/10/07 03:33:32;;;;;;;;;15.80;15.80;;;;;20.53;100.00;101929.81;2085034;28;46406;-52
2023/10/07 03:34:32;;;;;;;;;16.20;16.20;;;;;20.55;100.00;101929.72;2110135;27;46493;-55
2023/10/07 03:35:36;;;;;;;;;15.75;15.75;;;;;20.56;100.00;101931.47;2112365;27;46532;-55
2023/10/07 03:36:45;;;;;;;;;16.20;16.20;;;;;20.55;100.00;101927.91;2114173;27;46593;-56
2023/10/07 03:37:45;;;;;;;;;14.40;14.40;;;;;20.54;100.00;101933.38;2111281;27;46747;-55
2023/10/07 03:38:57;;;;;;;;;14.75;12.75;;;;;20.50;100.00;101938.03;2113672;27;46819;-55
2023/10/07 03:40:58;;;;;;;;;16.75;16.25;;;;;20.51;100.00;101941.63;2114363;27;46478;-54
2023/10/07 03:42:02;;;;;;;;;15.25;15.25;;;;;20.49;100.00;101936.28;2111773;27;45666;-55
2023/10/07 03:43:02;;;;;;;;;19.20;17.80;;;;;20.51;100.00;101936.22;2110887;27;46343;-55
2023/10/07 03:44:04;;;;;;;;;16.80;16.00;;;;;20.51;100.00;101930.81;2109246;27;46835;-51
2023/10/07 03:45:05;;;;;;;;;14.25;13.25;;;;;20.50;100.00;101937.16;2113355;27;46629;-56
2023/10/07 03:46:05;;;;;;;;;13.50;13.50;;;;;20.48;100.00;101934.53;2112302;27;45043;-55
2023/10/07 03:47:10;;;;;;;;;14.25;14.25;;;;;20.47;100.00;101934.59;2114143;27;46177;-55
2023/10/07 03:48:23;;;;;;;;;17.00;14.80;;;;;20.46;100.00;101935.56;2112112;27;46554;-55
2023/10/07 03:49:33;;;;;;;;;14.80;14.80;;;;;20.46;100.00;101930.16;2112027;27;47549;-55
2023/10/07 03:50:36;;;;;;;;;16.20;14.40;;;;;20.46;100.00;101930.16;2090002;28;46677;-57
2023/10/07 03:51:37;;;;;;;;;18.00;16.20;;;;;20.45;100.00;101928.38;2095511;27;46850;-56
2023/10/07 03:52:37;;;;;;;;;14.25;13.50;;;;;20.44;100.00;101921.25;2113481;27;46642;-56
2023/10/07 03:53:47;;;;;;;;;13.75;12.75;;;;;20.44;100.00;101932.91;2110320;27;46371;-55
2023/10/07 03:54:47;;;;;;;;;16.40;14.00;;;;;20.43;100.00;101928.44;2113728;27;46294;-55
2023/10/07 03:55:48;;;;;;;;;16.00;14.75;;;;;20.42;100.00;101931.22;2112401;27;46434;-56
2023/10/07 03:56:49;;;;;;;;;15.00;13.75;;;;;20.43;100.00;101933.84;2113354;27;46400;-56
2023/10/07 03:57:49;;;;;;;;;13.80;13.80;;;;;20.44;100.00;101937.41;2111626;27;46510;-56
2023/10/07 03:58:49;;;;;;;;;12.50;12.50;;;;;20.44;100.00;101934.72;2113628;27;46900;-57
2023/10/07 03:59:52;;;;;;;;;14.75;13.75;;;;;20.43;100.00;101933.84;2112895;27;46777;-55
2023/10/07 04:00:52;;;;;;;;;16.20;16.20;;;;;20.42;100.00;101933.91;2113931;27;46042;-55
2023/10/07 04:01:53;;;;;;;;;15.50;15.25;;;;;20.42;100.00;101940.19;2109874;27;46986;-53
2023/10/07 04:02:54;;;;;;;;;14.00;12.50;;;;;20.41;100.00;101935.69;2113941;27;46374;-57
2023/10/07 04:03:59;;;;;;;;;14.50;13.75;;;;;20.40;100.00;101931.25;2110978;27;45487;-54
2023/10/07 04:05:10;;;;;;;;;14.00;12.60;;;;;20.40;100.00;101933.06;2113629;27;46391;-56
2023/10/07 04:06:10;;;;;;;;;16.00;14.80;;;;;20.39;100.00;101932.19;2112561;27;46259;-55
2023/10/07 04:07:12;;;;;;;;;13.00;13.00;;;;;20.38;100.00;101935.84;2113486;27;46321;-56
2023/10/07 04:08:13;;;;;;;;;16.40;15.20;;;;;20.40;100.00;101933.06;2111541;27;46324;-55
2023/10/07 04:09:14;;;;;;;;;16.00;16.00;;;;;20.39;100.00;101934.03;2113540;27;46314;-51
2023/10/07 04:10:31;;;;;;;;;19.60;13.80;;;;;20.35;100.00;101927.91;2112774;27;46470;-56
2023/10/07 04:11:33;;;;;;;;;16.40;12.40;;;;;20.36;100.00;101935.03;2111955;27;45745;-56
2023/10/07 04:12:34;;;;;;;;;8.00;8.00;;;;;20.35;100.00;101933.28;2113763;27;46731;-56
2023/10/07 04:13:36;;;;;;;;;13.60;12.80;;;;;20.34;100.00;101934.22;2111644;27;46851;-56
2023/10/07 04:14:39;;;;;;;;;12.60;11.80;;;;;20.35;100.00;101935.09;2108998;27;46400;-56
2023/10/07 04:15:51;;;;;;;;;17.40;17.40;;;;;20.35;100.00;101935.09;2108849;27;46873;-56
2023/10/07 04:16:52;;;;;;;;;16.60;13.80;;;;;20.35;100.00;101932.41;2113921;27;46409;-55
2023/10/07 04:17:52;;;;;;;;;18.40;14.00;;;;;20.36;100.00;101939.56;2110608;27;46963;-57
2023/10/07 04:20:50;;;;;;;;;13.20;13.00;;;;;20.33;100.00;101934.25;2078999;28;46693;-54
2023/10/07 04:21:50;;;;;;;;;19.60;17.80;;;;;20.33;100.00;101936.97;2073192;28;47541;-54
2023/10/07 04:23:00;;;;;;;;;9.60;7.40;;;;;20.33;100.00;101939.66;2078782;28;46729;-56
2023/10/07 04:24:01;;;;;;;;;14.60;13.20;;;;;20.31;100.00;101931.66;2073567;28;46588;-56
2023/10/07 04:25:07;;;;;;;;;14.75;13.50;;;;;20.32;100.00;101935.22;2071103;28;46273;-56
2023/10/07 04:26:10;;;;;;;;;15.00;15.00;;;;;20.31;100.00;101934.34;2077414;28;46260;-54
2023/10/07 04:27:19;;;;;;;;;14.20;12.80;;;;;20.32;100.00;101933.38;2078146;28;45958;-56
2023/10/07 04:28:19;;;;;;;;;15.20;15.20;;;;;20.32;100.00;101930.69;2077810;28;46794;-55
2023/10/07 04:29:21;;;;;;;;;18.25;17.75;;;;;20.35;100.00;101935.09;2077776;28;45448;-52
2023/10/07 04:30:39;;;;;;;;;15.60;15.40;;;;;20.34;100.00;101933.34;2079101;28;46716;-56
2023/10/07 04:31:39;;;;;;;;;18.80;18.40;;;;;20.33;100.00;101931.56;2075664;28;45843;-56
2023/10/07 04:32:52;;;;;;;;;17.00;13.75;;;;;20.32;100.00;101924.44;2079179;28;46268;-55
2023/10/07 04:33:53;;;;;;;;;19.20;18.00;;;;;20.34;100.00;101922.56;2067289;28;45574;-55
2023/10/07 04:36:14;;;;;;;;;15.60;15.60;;;;;20.33;100.00;101920.78;2076459;28;46777;-55
2023/10/07 04:37:18;;;;;;;;;15.40;15.40;;;;;20.29;100.00;101926.31;2070780;28;45134;-54
2023/10/07 04:39:28;;;;;;;;;21.80;17.80;;;;;20.31;100.00;101919.97;2065404;28;46660;-52
2023/10/07 04:41:30;;;;;;;;;15.60;15.00;;;;;20.31;100.00;101923.56;2063671;28;47350;-56
2023/10/07 04:41:57;;;;;;;;;16.40;14.00;;;;;20.31;100.00;101922.69;2071283;28;47036;-55
2023/10/07 04:44:21;;;;;;;;;20.00;17.40;;;;;20.31;100.00;101917.28;2037100;28;46390;-56
2023/10/07 04:45:24;;;;;;;;;15.75;15.00;;;;;20.32;100.00;101919.91;2037106;28;45749;-55
2023/10/07 04:46:28;;;;;;;;;20.00;17.40;;;;;20.31;100.00;101919.97;2037774;28;46640;-57
2023/10/07 04:48:42;;;;;;;;;16.75;16.50;;;;;20.31;100.00;101923.56;2038454;28;45634;-56
2023/10/07 04:49:55;;;;;;;;;17.40;16.00;;;;;20.28;100.00;101916.47;2029768;28;46811;-56
2023/10/07 04:51:04;;;;;;;;;15.20;14.00;;;;;20.29;100.00;101917.34;2037032;28;46418;-57
2023/10/07 04:52:07;;;;;;;;;16.00;15.40;;;;;20.29;100.00;101918.22;2035852;28;47159;-53
2023/10/07 04:53:09;;;;;;;;;17.00;16.60;;;;;20.27;100.00;101919.25;2036963;28;47030;-57
2023/10/07 04:54:20;;;;;;;;;19.00;17.20;;;;;20.28;100.00;101921.88;2036894;28;46348;-54
2023/10/07 04:55:26;;;;;;;;;17.00;16.00;;;;;20.29;100.00;101923.63;2037426;28;46716;-53
2023/10/07 04:56:27;;;;;;;;;18.40;17.40;;;;;20.31;100.00;101922.69;2030474;28;46564;-52
2023/10/07 04:58:47;;;;;;;;;19.40;16.80;;;;;20.28;100.00;101926.38;2062961;28;46613;-56
2023/10/07 04:59:47;;;;;;;;;15.50;15.50;;;;;20.29;100.00;101926.31;2066127;28;47035;-56
2023/10/07 05:00:49;;;;;;;;;15.75;15.75;;;;;20.30;100.00;101927.19;2071564;28;45035;-56
2023/10/07 05:01:56;;;;;;;;;19.00;18.00;;;;;20.28;100.00;101924.56;2053762;28;46374;-58
2023/10/07 05:03:16;;;;;;;;;13.20;13.20;;;;;20.32;100.00;101921.72;2056744;28;46008;-56
2023/10/07 05:04:16;;;;;;;;;13.80;13.40;;;;;20.30;100.00;101927.19;2067927;28;46428;-55
2023/10/07 05:05:16;;;;;;;;;17.00;15.75;;;;;20.31;100.00;101930.75;2061799;28;46081;-56
2023/10/07 05:06:18;;;;;;;;;18.50;18.50;;;;;20.29;100.00;101933.53;2059460;28;46232;-56
2023/10/07 05:07:26;;;;;;;;;16.40;16.40;;;;;20.29;100.00;101933.53;2061771;28;46921;-52